createdAt,value
2023-04-16T00:00:43.100Z,50.41
2023-04-16T00:03:09.715Z,50.56
2023-04-16T00:05:36.411Z,50.98
2023-04-16T00:08:02.789Z,50.60
2023-04-16T00:10:29.118Z,50.38
2023-04-16T00:12:55.555Z,50.58
2023-04-16T00:15:21.930Z,50.78
2023-04-16T00:17:48.432Z,50.64
2023-04-16T00:20:14.844Z,50.82
2023-04-16T00:22:41.347Z,50.71
2023-04-16T00:25:07.843Z,50.83
2023-04-16T00:27:34.222Z,50.81
2023-04-16T00:30:00.568Z,50.97
2023-04-16T00:32:26.959Z,50.83
2023-04-16T00:34:53.358Z,50.91
2023-04-16T00:37:19.713Z,50.84
2023-04-16T00:39:46.033Z,51.05
2023-04-16T00:42:12.477Z,50.95
2023-04-16T00:44:38.829Z,50.96
2023-04-16T00:47:05.278Z,50.62
2023-04-16T00:49:31.633Z,51.02
2023-04-16T00:51:58.033Z,51.01
2023-04-16T00:54:24.455Z,51.07
2023-04-16T00:56:50.802Z,50.91
2023-04-16T00:59:17.230Z,50.92
2023-04-16T01:01:43.685Z,50.86
2023-04-16T01:04:10.243Z,51.17
2023-04-16T01:06:36.631Z,51.06
2023-04-16T01:09:02.945Z,51.06
2023-04-16T01:11:29.269Z,51.07
2023-04-16T01:13:55.615Z,51.05
2023-04-16T01:16:22.037Z,50.93
2023-04-16T01:18:48.434Z,51.13
2023-04-16T01:21:14.819Z,50.99
2023-04-16T01:23:41.147Z,51.12
2023-04-16T01:26:07.493Z,50.96
2023-04-16T01:28:33.842Z,50.94
2023-04-16T01:31:00.177Z,50.78
2023-04-16T01:33:26.582Z,50.97
2023-04-16T01:35:52.937Z,50.99
2023-04-16T01:38:19.299Z,50.88
2023-04-16T01:40:45.614Z,51.07
2023-04-16T01:43:11.975Z,50.96
2023-04-16T01:45:38.384Z,50.76
2023-04-16T01:48:04.721Z,50.91
2023-04-16T01:50:31.055Z,50.92
2023-04-16T01:52:57.381Z,51.02
2023-04-16T01:55:23.740Z,50.95
2023-04-16T01:57:50.077Z,51.10
2023-04-16T02:00:16.426Z,50.97
2023-04-16T02:02:43.059Z,50.88
2023-04-16T02:05:09.467Z,50.95
2023-04-16T02:07:35.780Z,51.05
2023-04-16T02:10:02.110Z,50.82
2023-04-16T02:12:28.458Z,50.87
2023-04-16T02:14:57.646Z,50.96
2023-04-16T02:17:24.019Z,50.93
2023-04-16T02:19:50.440Z,50.99
2023-04-16T02:22:16.805Z,50.89
2023-04-16T02:24:43.127Z,50.84
2023-04-16T02:27:09.541Z,50.76
2023-04-16T02:29:35.872Z,50.79
2023-04-16T02:32:02.276Z,50.88
2023-04-16T02:34:28.645Z,50.82
2023-04-16T02:36:54.991Z,50.89
2023-04-16T02:39:21.410Z,50.99
2023-04-16T02:41:47.749Z,50.89
2023-04-16T02:44:14.070Z,50.98
2023-04-16T02:46:40.385Z,50.84
2023-04-16T02:49:06.810Z,50.97
2023-04-16T02:51:33.273Z,50.87
2023-04-16T02:53:59.572Z,50.67
2023-04-16T02:56:25.959Z,50.85
2023-04-16T02:58:52.303Z,50.85
2023-04-16T03:01:18.667Z,50.78
2023-04-16T03:03:45.086Z,50.66
2023-04-16T03:06:12.287Z,50.72
2023-04-16T03:08:38.677Z,50.69
2023-04-16T03:11:05.039Z,50.82
2023-04-16T03:13:31.375Z,50.92
2023-04-16T03:15:57.900Z,50.78
2023-04-16T03:18:24.373Z,50.90
2023-04-16T03:20:50.708Z,50.91
2023-04-16T03:23:17.073Z,50.84
2023-04-16T03:25:43.477Z,51.06
2023-04-16T03:28:09.801Z,51.02
2023-04-16T03:30:36.125Z,50.86
2023-04-16T03:33:02.465Z,50.74
2023-04-16T03:35:28.809Z,50.72
2023-04-16T03:37:55.216Z,50.76
2023-04-16T03:40:21.541Z,50.93
2023-04-16T03:42:47.863Z,50.97
2023-04-16T03:45:15.088Z,50.80
2023-04-16T03:47:41.460Z,50.69
2023-04-16T03:50:07.832Z,50.88
2023-04-16T03:52:34.170Z,50.64
2023-04-16T03:55:00.588Z,50.74
2023-04-16T03:57:26.937Z,50.78
2023-04-16T03:59:53.285Z,50.58
2023-04-16T04:02:19.877Z,50.57
2023-04-16T04:04:46.508Z,50.48
2023-04-16T04:07:12.966Z,50.62
2023-04-16T04:09:39.525Z,50.65
2023-04-16T04:12:05.892Z,50.48
2023-04-16T04:14:32.198Z,50.50
2023-04-16T04:16:58.513Z,50.50
2023-04-16T04:19:24.843Z,50.49
2023-04-16T04:21:51.157Z,50.37
2023-04-16T04:24:17.558Z,50.72
2023-04-16T04:26:43.909Z,50.77
2023-04-16T04:29:10.407Z,50.78
2023-04-16T04:31:36.966Z,50.70
2023-04-16T04:34:03.315Z,50.61
2023-04-16T04:36:29.668Z,50.77
2023-04-16T04:38:56.009Z,50.33
2023-04-16T04:41:22.352Z,50.58
2023-04-16T04:43:48.734Z,50.63
2023-04-16T04:46:15.200Z,50.69
2023-04-16T04:48:41.595Z,50.48
2023-04-16T04:51:07.979Z,50.49
2023-04-16T04:53:34.346Z,50.62
2023-04-16T04:56:11.104Z,50.60
2023-04-16T04:58:38.413Z,50.35
2023-04-16T05:01:05.651Z,50.54
2023-04-16T05:03:32.174Z,50.65
2023-04-16T05:05:58.571Z,50.69
2023-04-16T05:08:24.915Z,50.56
2023-04-16T05:10:51.246Z,50.63
2023-04-16T05:13:18.461Z,50.45
2023-04-16T05:15:44.787Z,50.67
2023-04-16T05:18:11.129Z,50.75
2023-04-16T05:20:37.507Z,50.34
2023-04-16T05:23:03.841Z,50.53
2023-04-16T05:25:30.204Z,50.58
2023-04-16T05:27:56.584Z,50.52
2023-04-16T05:30:22.912Z,50.53
2023-04-16T05:32:49.329Z,50.32
2023-04-16T05:35:17.539Z,50.49
2023-04-16T05:37:44.150Z,50.27
2023-04-16T05:40:10.488Z,50.50
2023-04-16T05:42:36.844Z,50.44
2023-04-16T05:45:03.184Z,50.57
2023-04-16T05:47:29.546Z,50.59
2023-04-16T05:49:56.068Z,50.48
2023-04-16T05:52:22.459Z,50.47
2023-04-16T05:54:48.788Z,50.48
2023-04-16T05:57:15.301Z,50.54
2023-04-16T05:59:41.649Z,50.43
2023-04-16T06:02:08.120Z,50.53
2023-04-16T06:04:34.472Z,50.26
2023-04-16T06:07:00.823Z,50.36
2023-04-16T06:09:27.166Z,50.50
2023-04-16T06:11:53.498Z,50.54
2023-04-16T06:14:20.714Z,50.58
2023-04-16T06:16:47.075Z,50.61
2023-04-16T06:19:14.327Z,50.67
2023-04-16T06:21:40.684Z,50.76
2023-04-16T06:24:07.038Z,51.03
2023-04-16T06:26:33.422Z,51.17
2023-04-16T06:28:59.765Z,51.01
2023-04-16T06:31:27.089Z,51.11
2023-04-16T06:33:53.480Z,50.89
2023-04-16T06:36:20.722Z,51.09
2023-04-16T06:38:47.068Z,50.91
2023-04-16T06:41:13.441Z,50.99
2023-04-16T06:43:39.789Z,50.84
2023-04-16T06:46:07.045Z,51.05
2023-04-16T06:48:33.503Z,50.99
2023-04-16T06:50:59.850Z,50.91
2023-04-16T06:53:26.197Z,50.96
2023-04-16T06:55:52.625Z,51.01
2023-04-16T06:58:19.865Z,51.12
2023-04-16T07:00:46.329Z,50.92
2023-04-16T07:03:14.828Z,51.20
2023-04-16T07:05:42.140Z,51.24
2023-04-16T07:08:08.580Z,51.30
2023-04-16T07:10:34.968Z,51.15
2023-04-16T07:13:01.415Z,51.25
2023-04-16T07:15:27.893Z,51.19
2023-04-16T07:17:55.219Z,51.32
2023-04-16T07:20:22.524Z,51.22
2023-04-16T07:22:48.918Z,51.39
2023-04-16T07:25:16.130Z,51.33
2023-04-16T07:27:42.516Z,51.20
2023-04-16T07:30:08.964Z,51.09
2023-04-16T07:32:35.370Z,50.86
2023-04-16T07:35:01.894Z,50.72
2023-04-16T07:37:29.132Z,50.55
2023-04-16T07:39:57.244Z,50.65
2023-04-16T07:42:24.626Z,50.81
2023-04-16T07:44:51.849Z,50.79
2023-04-16T07:47:18.325Z,50.93
2023-04-16T07:49:44.737Z,50.91
2023-04-16T07:52:13.004Z,50.90
2023-04-16T07:54:39.436Z,50.90
2023-04-16T07:57:05.925Z,50.97
2023-04-16T07:59:35.102Z,50.86
2023-04-16T08:02:01.710Z,50.99
2023-04-16T08:04:30.261Z,50.85
2023-04-16T08:06:58.657Z,50.89
2023-04-16T08:09:25.993Z,50.77
2023-04-16T08:11:52.459Z,50.83
2023-04-16T08:14:18.993Z,50.72
2023-04-16T08:16:47.405Z,50.91
2023-04-16T08:19:14.621Z,50.65
2023-04-16T08:21:41.885Z,50.56
2023-04-16T08:24:08.362Z,50.68
2023-04-16T08:26:35.596Z,50.85
2023-04-16T08:29:03.945Z,50.74
2023-04-16T08:31:32.451Z,50.61
2023-04-16T08:34:00.821Z,50.85
2023-04-16T08:36:29.118Z,50.80
2023-04-16T08:38:58.293Z,50.55
2023-04-16T08:41:24.760Z,50.81
2023-04-16T08:43:53.078Z,50.93
2023-04-16T08:46:22.275Z,50.97
2023-04-16T08:48:49.619Z,50.70
2023-04-16T08:51:16.062Z,50.82
2023-04-16T08:53:42.529Z,50.87
2023-04-16T08:56:10.810Z,51.26
2023-04-16T08:58:37.237Z,51.05
2023-04-16T09:01:03.653Z,51.05
2023-04-16T09:03:33.384Z,50.93
2023-04-16T09:06:02.146Z,50.82
2023-04-16T09:08:30.427Z,50.60
2023-04-16T09:10:56.903Z,50.85
2023-04-16T09:13:23.327Z,50.49
2023-04-16T09:15:49.753Z,50.29
2023-04-16T09:18:19.027Z,50.17
2023-04-16T09:20:47.301Z,49.90
2023-04-16T09:23:14.539Z,50.50
2023-04-16T09:25:41.838Z,49.99
2023-04-16T09:28:08.207Z,50.21
2023-04-16T09:30:37.480Z,50.09
2023-04-16T09:33:04.000Z,49.94
2023-04-16T09:35:32.291Z,49.90
2023-04-16T09:37:58.727Z,49.49
2023-04-16T09:40:25.184Z,49.37
2023-04-16T09:42:51.628Z,49.47
2023-04-16T09:45:18.017Z,49.26
2023-04-16T09:47:46.426Z,49.00
2023-04-16T09:50:14.799Z,49.54
2023-04-16T09:52:42.986Z,49.32
2023-04-16T09:55:09.478Z,48.99
2023-04-16T09:57:35.956Z,49.67
2023-04-16T10:00:05.920Z,49.35
2023-04-16T10:02:35.376Z,49.19
2023-04-16T10:05:01.886Z,49.16
2023-04-16T10:07:28.330Z,49.03
2023-04-16T10:09:54.769Z,48.94
2023-04-16T10:12:21.251Z,49.00
2023-04-16T10:14:50.408Z,48.89
2023-04-16T10:17:18.205Z,48.50
2023-04-16T10:19:46.819Z,48.34
2023-04-16T10:22:15.158Z,48.62
2023-04-16T10:24:41.585Z,48.30
2023-04-16T10:27:09.887Z,48.32
2023-04-16T10:29:36.334Z,48.53
2023-04-16T10:32:04.611Z,48.49
2023-04-16T10:34:32.983Z,48.85
2023-04-16T10:36:59.482Z,48.74
2023-04-16T10:39:25.972Z,48.85
2023-04-16T10:41:54.258Z,48.80
2023-04-16T10:44:22.555Z,48.94
2023-04-16T10:46:51.696Z,49.44
2023-04-16T10:49:18.165Z,49.19
2023-04-16T10:51:46.512Z,49.69
2023-04-16T10:54:12.938Z,49.32
2023-04-16T10:56:40.257Z,49.51
2023-04-16T10:59:06.683Z,49.75
2023-04-16T11:01:34.117Z,49.73
2023-04-16T11:04:01.779Z,49.76
2023-04-16T11:06:28.394Z,49.82
2023-04-16T11:09:09.011Z,49.95
2023-04-16T11:11:36.400Z,50.14
2023-04-16T11:14:03.775Z,50.07
2023-04-16T11:16:31.255Z,50.26
2023-04-16T11:18:57.957Z,50.27
2023-04-16T11:21:25.435Z,50.08
2023-04-16T11:23:52.822Z,50.46
2023-04-16T11:26:19.271Z,50.49
2023-04-16T11:28:45.759Z,50.62
2023-04-16T11:31:13.173Z,50.58
2023-04-16T11:33:40.549Z,50.30
2023-04-16T11:36:08.018Z,50.56
2023-04-16T11:38:35.445Z,50.14
2023-04-16T11:41:02.812Z,50.65
2023-04-16T11:43:30.191Z,50.65
2023-04-16T11:45:57.579Z,50.60
2023-04-16T11:48:24.951Z,50.73
2023-04-16T11:50:52.325Z,50.60
2023-04-16T11:53:19.719Z,50.58
2023-04-16T11:55:47.120Z,50.49
2023-04-16T11:58:14.502Z,50.55
2023-04-16T12:00:41.955Z,50.72
2023-04-16T12:03:08.735Z,50.37
2023-04-16T12:05:35.338Z,50.45
2023-04-16T12:08:02.070Z,50.26
2023-04-16T12:10:29.477Z,50.58
2023-04-16T12:12:55.945Z,50.45
2023-04-16T12:15:23.340Z,50.35
2023-04-16T12:17:50.804Z,50.01
2023-04-16T12:20:18.224Z,50.08
2023-04-16T12:22:44.709Z,50.28
2023-04-16T12:25:12.051Z,50.04
2023-04-16T12:27:38.490Z,50.18
2023-04-16T12:30:05.020Z,50.18
2023-04-16T12:32:32.416Z,50.30
2023-04-16T12:34:59.838Z,49.99
2023-04-16T12:37:26.294Z,49.84
2023-04-16T12:39:53.635Z,49.91
2023-04-16T12:42:21.004Z,49.98
2023-04-16T12:44:48.396Z,49.97
2023-04-16T12:47:14.939Z,50.06
2023-04-16T12:49:41.394Z,50.13
2023-04-16T12:52:08.805Z,49.76
2023-04-16T12:54:36.170Z,49.91
2023-04-16T12:57:02.606Z,50.05
2023-04-16T12:59:30.019Z,50.03
2023-04-16T13:01:57.516Z,50.06
2023-04-16T13:04:26.013Z,49.67
2023-04-16T13:06:52.676Z,49.62
2023-04-16T13:09:20.064Z,49.61
2023-04-16T13:11:47.441Z,49.64
2023-04-16T13:14:13.932Z,49.61
2023-04-16T13:16:40.664Z,49.53
2023-04-16T13:19:07.150Z,49.72
2023-04-16T13:21:34.539Z,49.75
2023-04-16T13:24:00.985Z,50.08
2023-04-16T13:26:27.407Z,49.74
2023-04-16T13:28:54.802Z,49.72
2023-04-16T13:31:22.252Z,49.63
2023-04-16T13:33:49.765Z,49.83
2023-04-16T13:36:16.260Z,49.93
2023-04-16T13:38:43.627Z,49.65
2023-04-16T13:41:10.062Z,49.75
2023-04-16T13:43:36.488Z,49.74
2023-04-16T13:46:03.913Z,49.91
2023-04-16T13:48:30.355Z,49.79
2023-04-16T13:50:57.720Z,49.51
2023-04-16T13:53:25.082Z,49.63
2023-04-16T13:55:51.493Z,49.59
2023-04-16T13:58:18.872Z,49.70
2023-04-16T14:00:46.202Z,49.88
2023-04-16T14:03:13.691Z,49.94
2023-04-16T14:05:41.047Z,49.49
2023-04-16T14:08:08.394Z,49.77
2023-04-16T14:10:35.637Z,49.51
2023-04-16T14:13:02.076Z,49.83
2023-04-16T14:15:28.557Z,49.62
2023-04-16T14:17:55.870Z,49.54
2023-04-16T14:20:23.176Z,49.73
2023-04-16T14:22:50.438Z,49.50
2023-04-16T14:25:17.782Z,49.46
2023-04-16T14:27:45.131Z,49.63
2023-04-16T14:30:11.558Z,49.94
2023-04-16T14:32:38.968Z,49.48
2023-04-16T14:35:05.451Z,49.52
2023-04-16T14:37:32.783Z,49.58
2023-04-16T14:40:00.172Z,49.77
2023-04-16T14:42:27.517Z,49.46
2023-04-16T14:44:53.976Z,49.58
2023-04-16T14:47:21.314Z,49.64
2023-04-16T14:49:48.688Z,49.58
2023-04-16T14:52:15.145Z,49.58
2023-04-16T14:54:42.388Z,49.77
2023-04-16T14:57:08.862Z,49.53
2023-04-16T14:59:35.280Z,49.49
2023-04-16T15:02:02.603Z,49.80
2023-04-16T15:04:29.148Z,49.53
2023-04-16T15:06:56.668Z,49.62
2023-04-16T15:09:23.144Z,49.53
2023-04-16T15:11:50.397Z,49.51
2023-04-16T15:14:17.733Z,49.79
2023-04-16T15:16:45.067Z,49.58
2023-04-16T15:19:12.601Z,49.84
2023-04-16T15:21:40.100Z,49.52
2023-04-16T15:24:07.438Z,49.51
2023-04-16T15:26:34.175Z,49.81
2023-04-16T15:29:00.599Z,49.59
2023-04-16T15:31:27.274Z,49.92
2023-04-16T15:33:53.788Z,49.77
2023-04-16T15:36:21.068Z,49.79
2023-04-16T15:38:47.514Z,49.84
2023-04-16T15:41:14.800Z,49.91
2023-04-16T15:43:42.109Z,49.64
2023-04-16T15:46:08.601Z,49.89
2023-04-16T15:48:37.016Z,49.83
2023-04-16T15:51:04.404Z,49.87
2023-04-16T15:53:31.680Z,49.73
2023-04-16T15:55:58.980Z,49.87
2023-04-16T15:58:25.390Z,49.95
2023-04-16T16:00:51.828Z,49.95
2023-04-16T16:03:18.540Z,49.78
2023-04-16T16:05:45.966Z,50.03
2023-04-16T16:08:13.222Z,50.07
2023-04-16T16:10:39.713Z,50.17
2023-04-16T16:13:07.007Z,49.75
2023-04-16T16:15:33.417Z,50.13
2023-04-16T16:18:00.695Z,49.68
2023-04-16T16:20:27.990Z,49.95
2023-04-16T16:22:55.240Z,50.06
2023-04-16T16:25:21.678Z,49.70
2023-04-16T16:27:49.912Z,50.08
2023-04-16T16:30:16.332Z,50.12
2023-04-16T16:32:42.759Z,50.18
2023-04-16T16:35:10.151Z,50.12
2023-04-16T16:37:42.070Z,50.14
2023-04-16T16:40:09.492Z,49.99
2023-04-16T16:42:35.963Z,49.90
2023-04-16T16:45:02.499Z,50.10
2023-04-16T16:47:30.847Z,50.22
2023-04-16T16:49:57.334Z,49.87
2023-04-16T16:52:24.678Z,50.16
2023-04-16T16:54:52.005Z,49.86
2023-04-16T16:57:18.414Z,49.83
2023-04-16T16:59:44.899Z,50.11
2023-04-16T17:02:12.179Z,50.15
2023-04-16T17:04:40.540Z,50.21
2023-04-16T17:07:07.815Z,50.17
2023-04-16T17:09:35.067Z,49.94
2023-04-16T17:12:01.650Z,50.17
2023-04-16T17:14:28.153Z,50.16
2023-04-16T17:16:55.510Z,50.22
2023-04-16T17:19:22.839Z,50.19
2023-04-16T17:21:49.340Z,50.23
2023-04-16T17:24:15.781Z,50.11
2023-04-16T17:26:42.268Z,50.25
2023-04-16T17:29:08.707Z,50.28
2023-04-16T17:31:35.224Z,50.11
2023-04-16T17:34:05.203Z,50.33
2023-04-16T17:36:33.520Z,50.25
2023-04-16T17:39:00.787Z,49.96
2023-04-16T17:41:27.260Z,50.20
2023-04-16T17:43:54.499Z,50.14
2023-04-16T17:46:21.869Z,50.17
2023-04-16T17:48:48.308Z,50.37
2023-04-16T17:51:15.543Z,50.29
2023-04-16T17:53:42.098Z,50.24
2023-04-16T17:56:09.368Z,50.10
2023-04-16T17:58:35.861Z,50.38
2023-04-16T18:01:02.276Z,50.31
2023-04-16T18:03:29.675Z,50.25
2023-04-16T18:05:56.317Z,50.19
2023-04-16T18:08:23.568Z,50.19
2023-04-16T18:10:50.361Z,50.06
2023-04-16T18:13:18.687Z,50.24
2023-04-16T18:15:45.934Z,50.10
2023-04-16T18:18:14.358Z,50.45
2023-04-16T18:20:40.848Z,50.06
2023-04-16T18:23:08.103Z,50.12
2023-04-16T18:25:35.528Z,50.27
2023-04-16T18:28:02.837Z,49.99
2023-04-16T18:30:29.566Z,50.34
2023-04-16T18:33:25.451Z,50.00
2023-04-16T18:35:44.444Z,50.32
2023-04-16T18:38:12.730Z,50.16
2023-04-16T18:40:41.051Z,50.09
2023-04-16T18:43:08.313Z,50.38
2023-04-16T18:45:34.774Z,50.33
2023-04-16T18:48:03.096Z,50.05
2023-04-16T18:50:29.574Z,50.15
2023-04-16T18:52:57.912Z,50.33
2023-04-16T18:55:26.188Z,50.25
2023-04-16T18:57:53.425Z,50.26
2023-04-16T19:00:19.834Z,50.01
2023-04-16T19:02:47.280Z,50.30
2023-04-16T19:05:13.936Z,50.37
2023-04-16T19:07:40.441Z,50.33
2023-04-16T19:10:08.751Z,50.38
2023-04-16T19:12:37.102Z,50.07
2023-04-16T19:15:03.607Z,50.36
2023-04-16T19:17:30.876Z,50.31
2023-04-16T19:19:58.130Z,50.34
2023-04-16T19:22:26.563Z,50.41
2023-04-16T19:24:53.822Z,50.22
2023-04-16T19:27:20.285Z,50.24
2023-04-16T19:29:46.832Z,50.34
2023-04-16T19:32:14.200Z,50.30
2023-04-16T19:34:40.857Z,50.35
2023-04-16T19:37:07.337Z,50.01
2023-04-16T19:39:35.688Z,50.00
2023-04-16T19:42:02.181Z,50.03
2023-04-16T19:44:28.639Z,50.07
2023-04-16T19:46:55.084Z,50.11
2023-04-16T19:49:21.522Z,50.20
2023-04-16T19:51:48.804Z,50.25
2023-04-16T19:54:15.281Z,50.15
2023-04-16T19:56:41.772Z,50.07
2023-04-16T19:59:10.361Z,50.07
2023-04-16T20:01:37.890Z,50.08
2023-04-16T20:04:05.342Z,50.33
2023-04-16T20:06:31.855Z,50.31
2023-04-16T20:08:58.407Z,50.40
2023-04-16T20:11:24.802Z,50.18
2023-04-16T20:13:51.199Z,50.04
2023-04-16T20:16:17.704Z,50.29
2023-04-16T20:18:44.941Z,50.04
2023-04-16T20:21:13.306Z,50.32
2023-04-16T20:23:39.777Z,50.16
2023-04-16T20:26:06.294Z,50.01
2023-04-16T20:28:32.765Z,50.23
2023-04-16T20:31:01.087Z,50.37
2023-04-16T20:33:27.515Z,49.99
2023-04-16T20:35:55.813Z,50.01
2023-04-16T20:38:24.122Z,50.00
2023-04-16T20:40:50.566Z,49.96
2023-04-16T20:43:20.479Z,49.95
2023-04-16T20:45:46.915Z,49.96
2023-04-16T20:48:13.458Z,50.14
2023-04-16T20:50:40.816Z,49.99
2023-04-16T20:53:09.101Z,50.26
2023-04-16T20:55:36.366Z,49.92
2023-04-16T20:58:03.704Z,49.92
2023-04-16T21:00:30.196Z,49.93
2023-04-16T21:02:56.865Z,50.00
2023-04-16T21:05:23.443Z,49.93
2023-04-16T21:07:50.726Z,49.95
2023-04-16T21:10:17.214Z,50.27
2023-04-16T21:12:45.494Z,50.17
2023-04-16T21:15:11.894Z,49.85
2023-04-16T21:17:39.211Z,50.03
2023-04-16T21:20:05.629Z,50.15
2023-04-16T21:22:33.906Z,50.05
2023-04-16T21:25:00.354Z,49.94
2023-04-16T21:27:26.809Z,49.93
2023-04-16T21:29:55.119Z,49.95
2023-04-16T21:32:22.391Z,49.99
2023-04-16T21:34:48.848Z,50.24
2023-04-16T21:37:15.287Z,49.95
2023-04-16T21:39:41.837Z,49.94
2023-04-16T21:42:09.086Z,50.30
2023-04-16T21:44:36.339Z,49.80
2023-04-16T21:47:03.668Z,50.26
2023-04-16T21:49:31.046Z,50.22
2023-04-16T21:51:58.359Z,49.81
2023-04-16T21:54:25.595Z,49.96
2023-04-16T21:56:52.092Z,50.11
2023-04-16T21:59:20.434Z,49.85
2023-04-16T22:01:47.733Z,50.01
2023-04-16T22:04:14.203Z,50.15
2023-04-16T22:06:40.722Z,49.83
2023-04-16T22:09:07.170Z,50.00
2023-04-16T22:11:33.601Z,50.17
2023-04-16T22:14:00.106Z,50.11
2023-04-16T22:16:27.452Z,49.94
2023-04-16T22:18:53.984Z,50.05
2023-04-16T22:21:20.425Z,50.07
2023-04-16T22:23:46.860Z,49.83
2023-04-16T22:26:13.323Z,50.05
2023-04-16T22:28:40.552Z,49.82
2023-04-16T22:31:08.862Z,49.78
2023-04-16T22:33:36.104Z,49.89
2023-04-16T22:36:02.575Z,49.87
2023-04-16T22:38:29.073Z,49.76
2023-04-16T22:40:56.290Z,49.69
2023-04-16T22:43:23.582Z,49.59
2023-04-16T22:45:52.771Z,49.73
2023-04-16T22:48:20.018Z,49.82
2023-04-16T22:50:47.241Z,49.73
2023-04-16T22:53:14.477Z,50.15
2023-04-16T22:55:42.740Z,49.82
2023-04-16T22:58:09.958Z,49.96
2023-04-16T23:00:36.463Z,49.89
2023-04-16T23:03:03.930Z,49.84
2023-04-16T23:05:31.221Z,49.82
2023-04-16T23:07:57.688Z,49.92
2023-04-16T23:10:24.151Z,49.84
2023-04-16T23:12:50.608Z,49.77
2023-04-16T23:15:17.085Z,49.96
2023-04-16T23:17:43.583Z,49.69
2023-04-16T23:20:10.107Z,49.88
2023-04-16T23:22:38.392Z,50.04
2023-04-16T23:25:05.638Z,49.83
2023-04-16T23:27:32.052Z,49.93
2023-04-16T23:29:58.562Z,49.89
2023-04-16T23:32:25.066Z,49.71
2023-04-16T23:34:51.580Z,49.75
2023-04-16T23:37:18.057Z,49.58
2023-04-16T23:39:44.543Z,49.69
2023-04-16T23:42:11.070Z,49.58
2023-04-16T23:44:39.360Z,49.76
2023-04-16T23:47:05.859Z,50.02
2023-04-16T23:49:34.195Z,49.79
2023-04-16T23:52:04.131Z,49.67
2023-04-16T23:54:34.072Z,49.84
2023-04-16T23:57:00.536Z,49.67
2023-04-16T23:59:27.037Z,49.70
